Time;durP1;ratioP1;P1;durP2;ratioP2;P2;SDS_P1;SDS_P2;PMS_P1;PMS_P2;Temp;Humidity;BMP_temperature;BMP_pressure;BME280_temperature;BME280_humidity;BME280_pressure;Samples;Min_cycle;Max_cycle;Signal;HPM_P1;HPM_P2
2021/08/21 00:00:23;;;;;;;7.13;4.15;;;24.70;86.10;;;;;;5001488;28;20280;-71
2021/08/21 00:02:49;;;;;;;5.68;3.88;;;24.70;85.40;;;;;;4984292;28;20193;-73
2021/08/21 00:05:16;;;;;;;8.13;3.78;;;24.70;84.90;;;;;;5000904;28;20657;-72
2021/08/21 00:07:42;;;;;;;8.77;3.95;;;24.70;83.70;;;;;;4998587;28;20870;-72
2021/08/21 00:10:10;;;;;;;7.15;3.95;;;24.60;83.60;;;;;;4991449;28;20852;-72
2021/08/21 00:12:36;;;;;;;7.10;3.85;;;24.60;83.80;;;;;;4993470;28;20198;-72
2021/08/21 00:15:06;;;;;;;5.45;3.60;;;24.60;83.90;;;;;;5000497;28;20298;-72
2021/08/21 00:17:33;;;;;;;5.60;3.60;;;24.70;83.90;;;;;;4981908;28;20193;-73
2021/08/21 00:19:59;;;;;;;5.03;3.65;;;24.70;83.90;;;;;;5000704;28;20422;-74
2021/08/21 00:22:25;;;;;;;7.10;3.80;;;24.70;83.60;;;;;;5004298;28;20193;-72
2021/08/21 00:24:53;;;;;;;7.85;3.80;;;24.70;83.80;;;;;;5004289;28;20196;-71
2021/08/21 00:27:19;;;;;;;5.32;3.90;;;24.60;84.40;;;;;;5004320;28;21023;-71
2021/08/21 00:29:45;;;;;;;9.25;4.00;;;24.70;85.40;;;;;;5003454;28;20215;-73
2021/08/21 00:32:12;;;;;;;5.88;3.70;;;24.70;86.10;;;;;;4985300;28;20748;-74
2021/08/21 00:34:38;;;;;;;7.78;3.97;;;24.70;86.70;;;;;;4999886;28;20737;-71
2021/08/21 00:37:05;;;;;;;13.48;4.32;;;24.70;87.70;;;;;;4995314;28;20199;-69
2021/08/21 00:39:31;;;;;;;5.43;3.72;;;24.70;89.30;;;;;;5002314;28;20208;-73
2021/08/21 00:41:57;;;;;;;7.60;3.95;;;24.70;89.60;;;;;;5003655;28;20978;-72
2021/08/21 00:44:24;;;;;;;6.53;3.63;;;24.70;90.00;;;;;;5006826;28;20191;-71
2021/08/21 00:47:11;;;;;;;5.60;4.20;;;24.70;90.70;;;;;;5002478;28;20226;-72
2021/08/21 00:49:42;;;;;;;5.70;3.95;;;24.70;90.70;;;;;;5013133;28;20213;-73
2021/08/21 00:52:14;;;;;;;7.55;4.28;;;24.70;91.40;;;;;;5013686;28;20216;-71
2021/08/21 00:54:41;;;;;;;12.00;4.78;;;24.60;91.50;;;;;;5005667;28;20284;-71
2021/08/21 00:57:08;;;;;;;11.93;4.50;;;24.60;92.20;;;;;;5003957;28;20673;-71
2021/08/21 00:59:40;;;;;;;5.78;4.25;;;24.60;92.20;;;;;;5006695;28;20204;-73
2021/08/21 01:02:12;;;;;;;6.93;4.22;;;24.50;92.50;;;;;;5006412;28;20189;-75
2021/08/21 01:04:43;;;;;;;5.40;4.40;;;24.50;92.60;;;;;;5003737;28;20232;-74
2021/08/21 01:07:23;;;;;;;7.70;4.28;;;24.60;93.20;;;;;;4991967;28;20933;-73
2021/08/21 01:09:50;;;;;;;9.95;4.10;;;24.50;93.50;;;;;;5000299;28;20364;-72
2021/08/21 01:12:21;;;;;;;10.07;4.80;;;24.50;94.50;;;;;;5000902;28;20214;-71
2021/08/21 01:14:51;;;;;;;9.88;4.55;;;24.50;95.70;;;;;;5003058;28;20193;-74
2021/08/21 01:17:20;;;;;;;6.60;4.20;;;24.50;96.60;;;;;;5003387;28;20645;-74
2021/08/21 01:19:51;;;;;;;6.75;4.47;;;24.60;96.90;;;;;;5003065;28;20216;-72
2021/08/21 01:22:25;;;;;;;8.00;4.50;;;24.60;97.40;;;;;;5001249;28;20197;-71
2021/08/21 01:24:57;;;;;;;6.35;4.32;;;24.60;98.00;;;;;;5001478;28;20189;-73
2021/08/21 01:27:32;;;;;;;8.27;4.88;;;24.70;98.80;;;;;;5002200;28;20650;-71
2021/08/21 01:30:00;;;;;;;7.25;4.70;;;24.70;98.80;;;;;;5000651;28;20196;-71
2021/08/21 01:32:28;;;;;;;10.55;4.78;;;24.60;98.90;;;;;;5004550;28;20196;-73
2021/08/21 01:34:56;;;;;;;8.13;4.60;;;24.60;98.70;;;;;;5004453;28;20197;-73
2021/08/21 01:37:25;;;;;;;8.97;4.80;;;24.50;97.20;;;;;;4997457;28;20204;-75
2021/08/21 01:39:55;;;;;;;5.20;4.07;;;24.50;97.00;;;;;;4998188;28;20284;-71
2021/08/21 01:42:23;;;;;;;9.63;4.20;;;24.50;96.20;;;;;;5003489;28;20189;-72
2021/08/21 01:44:50;;;;;;;5.97;4.30;;;24.50;95.90;;;;;;5005563;28;20189;-75
2021/08/21 01:47:20;;;;;;;8.05;4.32;;;24.50;95.40;;;;;;4986801;28;20658;-73
2021/08/21 01:50:02;;;;;;;6.67;3.83;;;24.40;95.10;;;;;;5002286;28;20215;-71
2021/08/21 01:52:28;;;;;;;5.97;4.30;;;24.30;94.80;;;;;;4995320;28;20267;-72
2021/08/21 01:54:55;;;;;;;6.83;4.73;;;24.30;94.70;;;;;;5001229;28;20971;-72
2021/08/21 01:57:21;;;;;;;8.93;4.40;;;24.20;94.70;;;;;;5001618;28;20193;-73
2021/08/21 01:59:50;;;;;;;5.95;4.00;;;24.20;94.70;;;;;;5006721;28;20204;-73
2021/08/21 02:02:21;;;;;;;6.90;4.20;;;24.20;94.70;;;;;;4999556;28;20189;-75
2021/08/21 02:04:47;;;;;;;5.88;4.20;;;24.10;94.70;;;;;;5007575;28;20192;-73
2021/08/21 02:07:14;;;;;;;6.27;4.10;;;24.20;94.70;;;;;;4999831;28;20223;-72
2021/08/21 02:09:40;;;;;;;6.53;4.20;;;24.10;94.10;;;;;;4974913;28;20196;-72
2021/08/21 02:12:07;;;;;;;11.30;4.50;;;24.10;93.50;;;;;;5000050;28;20272;-72
2021/08/21 02:14:34;;;;;;;9.35;4.55;;;24.10;93.40;;;;;;5003501;28;20232;-74
2021/08/21 02:17:03;;;;;;;10.23;4.40;;;24.00;93.10;;;;;;4999743;28;20216;-75
2021/08/21 02:19:29;;;;;;;5.00;4.20;;;24.10;93.00;;;;;;4982632;28;20247;-69
2021/08/21 02:22:00;;;;;;;15.70;4.27;;;24.00;92.80;;;;;;5001347;28;20224;-73
2021/08/21 02:24:27;;;;;;;12.03;4.37;;;24.00;93.40;;;;;;4999926;28;20241;-73
2021/08/21 02:26:58;;;;;;;6.80;4.20;;;24.00;93.00;;;;;;4986397;28;20193;-72
2021/08/21 02:29:25;;;;;;;7.10;3.97;;;24.10;92.80;;;;;;4998367;28;20196;-73
2021/08/21 02:31:55;;;;;;;10.40;4.20;;;24.10;92.70;;;;;;5000289;28;20207;-75
2021/08/21 02:34:25;;;;;;;5.93;4.47;;;24.00;92.30;;;;;;4999204;28;20204;-73
2021/08/21 02:36:53;;;;;;;8.87;4.50;;;24.00;92.30;;;;;;4984803;28;20340;-73
2021/08/21 02:39:19;;;;;;;5.37;4.30;;;24.00;92.50;;;;;;4996220;28;20196;-72
2021/08/21 02:41:46;;;;;;;7.63;4.50;;;24.00;92.70;;;;;;5002297;28;20184;-71
2021/08/21 02:44:13;;;;;;;5.73;4.20;;;24.00;92.70;;;;;;5001167;28;20279;-75
2021/08/21 02:46:39;;;;;;;8.47;4.47;;;24.00;92.80;;;;;;5004201;28;20661;-72
2021/08/21 02:49:05;;;;;;;7.03;4.27;;;24.00;92.60;;;;;;5002268;28;20308;-71
2021/08/21 02:51:32;;;;;;;7.03;4.30;;;24.00;93.00;;;;;;5003289;28;20272;-73
2021/08/21 02:53:58;;;;;;;7.33;4.50;;;23.90;92.90;;;;;;5005175;28;20223;-72
2021/08/21 02:56:24;;;;;;;14.40;4.78;;;23.90;93.20;;;;;;4999793;28;20655;-73
2021/08/21 02:58:50;;;;;;;6.73;4.80;;;23.90;93.70;;;;;;5003385;28;20837;-74
2021/08/21 03:01:17;;;;;;;9.53;5.37;;;23.90;94.10;;;;;;5001818;28;20720;-72
2021/08/21 03:03:43;;;;;;;7.63;4.63;;;23.90;93.90;;;;;;5001165;28;20200;-72
2021/08/21 03:06:09;;;;;;;9.60;4.60;;;23.90;93.80;;;;;;5002366;28;20193;-71
2021/08/21 03:08:35;;;;;;;10.90;5.10;;;23.90;93.80;;;;;;4999215;28;20233;-71
2021/08/21 03:11:02;;;;;;;7.20;4.23;;;23.90;93.90;;;;;;4993467;28;20556;-73
2021/08/21 03:13:28;;;;;;;6.80;4.80;;;23.90;93.60;;;;;;5004719;28;20192;-75
2021/08/21 03:15:54;;;;;;;7.03;4.00;;;23.90;93.60;;;;;;4999509;28;20792;-74
2021/08/21 03:18:21;;;;;;;5.63;4.00;;;23.80;93.00;;;;;;5002998;28;20196;-76
2021/08/21 03:20:47;;;;;;;7.40;4.17;;;23.70;92.60;;;;;;5001145;28;20189;-73
2021/08/21 03:23:13;;;;;;;9.53;4.40;;;23.80;92.60;;;;;;4999007;28;20184;-73
2021/08/21 03:25:40;;;;;;;7.73;4.30;;;23.70;92.80;;;;;;4984721;28;20712;-74
2021/08/21 03:28:06;;;;;;;10.27;4.00;;;23.70;93.10;;;;;;4998349;28;20236;-73
2021/08/21 03:30:32;;;;;;;6.07;3.90;;;23.70;93.20;;;;;;5002744;28;20284;-73
2021/08/21 03:32:58;;;;;;;7.63;4.33;;;23.70;93.60;;;;;;5004975;28;20354;-73
2021/08/21 03:35:25;;;;;;;5.33;4.20;;;23.70;93.90;;;;;;4987235;28;20215;-74
2021/08/21 03:37:51;;;;;;;7.57;4.70;;;23.80;94.00;;;;;;4998124;28;20194;-74
2021/08/21 03:40:18;;;;;;;10.40;4.27;;;23.70;94.10;;;;;;4995771;28;20239;-73
2021/08/21 03:42:44;;;;;;;9.77;4.20;;;23.70;94.10;;;;;;4995678;28;20904;-72
2021/08/21 03:45:10;;;;;;;11.97;4.33;;;23.70;94.10;;;;;;4996382;28;20570;-73
2021/08/21 03:47:37;;;;;;;5.27;3.87;;;23.70;93.80;;;;;;5001190;28;20204;-71
2021/08/21 03:50:05;;;;;;;10.90;4.60;;;23.70;93.80;;;;;;5002587;28;20208;-71
2021/08/21 03:52:31;;;;;;;7.53;4.40;;;23.70;94.00;;;;;;4998804;28;20256;-73
2021/08/21 03:54:58;;;;;;;7.57;4.47;;;23.80;94.20;;;;;;4999460;28;20198;-75
2021/08/21 03:57:25;;;;;;;21.07;5.30;;;23.70;94.10;;;;;;5002027;28;20220;-74
2021/08/21 03:59:51;;;;;;;7.13;4.20;;;23.70;94.30;;;;;;5006304;28;20213;-71
2021/08/21 04:02:17;;;;;;;10.00;4.40;;;23.80;94.20;;;;;;5004770;28;20189;-72
2021/08/21 04:04:43;;;;;;;12.83;4.07;;;23.70;94.40;;;;;;5002586;28;20208;-73
2021/08/21 04:07:14;;;;;;;6.90;4.07;;;23.70;94.40;;;;;;5003848;28;20620;-71
2021/08/21 04:09:41;;;;;;;7.00;4.30;;;23.70;94.10;;;;;;5000766;28;20182;-72
2021/08/21 04:12:07;;;;;;;4.97;3.87;;;23.80;94.30;;;;;;4997919;28;20768;-72
2021/08/21 04:14:33;;;;;;;8.00;4.20;;;23.80;94.30;;;;;;4999896;28;20193;-73
2021/08/21 04:16:59;;;;;;;9.83;4.33;;;23.80;94.80;;;;;;5001962;28;20749;-74
2021/08/21 04:19:26;;;;;;;9.20;4.00;;;23.80;94.90;;;;;;5003447;28;20645;-71
2021/08/21 04:21:52;;;;;;;7.63;4.00;;;23.80;95.20;;;;;;5004913;28;20307;-73
2021/08/21 04:24:18;;;;;;;8.43;4.10;;;23.90;96.20;;;;;;5006191;28;20189;-75
2021/08/21 04:26:44;;;;;;;8.83;4.30;;;23.80;96.80;;;;;;5001367;28;20531;-73
2021/08/21 04:29:13;;;;;;;9.10;4.20;;;23.80;97.20;;;;;;5006097;28;20327;-75
2021/08/21 04:31:40;;;;;;;7.53;4.27;;;23.90;97.50;;;;;;4986789;28;20328;-71
2021/08/21 04:34:06;;;;;;;5.70;4.30;;;23.90;97.60;;;;;;5002943;28;20708;-72
2021/08/21 04:36:32;;;;;;;7.17;4.63;;;23.90;98.00;;;;;;5004155;28;20661;-74
2021/08/21 04:38:58;;;;;;;6.40;4.07;;;23.90;97.70;;;;;;5007420;28;20201;-74
2021/08/21 04:41:25;;;;;;;12.37;3.90;;;23.80;97.10;;;;;;4999590;28;20189;-71
2021/08/21 04:43:51;;;;;;;4.50;3.67;;;23.80;96.80;;;;;;4994047;28;20215;-74
2021/08/21 04:46:17;;;;;;;6.03;4.23;;;23.90;96.70;;;;;;5004171;28;20251;-74
2021/08/21 04:48:44;;;;;;;7.30;4.05;;;24.00;96.60;;;;;;4999801;28;20594;-73
2021/08/21 04:51:10;;;;;;;6.40;4.10;;;24.00;97.20;;;;;;5004386;28;20193;-72
2021/08/21 04:53:36;;;;;;;6.23;3.80;;;24.10;97.80;;;;;;5004680;28;20495;-71
2021/08/21 04:56:05;;;;;;;10.52;4.18;;;24.10;98.20;;;;;;5005360;28;20212;-72
2021/08/21 04:58:31;;;;;;;7.40;4.72;;;24.20;98.90;;;;;;5004987;28;20189;-73
2021/08/21 05:00:58;;;;;;;7.55;4.25;;;24.20;99.70;;;;;;5002052;28;20193;-74
2021/08/21 05:03:24;;;;;;;10.40;4.65;;;24.30;99.90;;;;;;5014260;28;20674;-75
2021/08/21 05:05:50;;;;;;;6.87;4.27;;;24.30;99.90;;;;;;5004876;28;20193;-73
2021/08/21 05:08:17;;;;;;;7.75;3.97;;;24.40;99.90;;;;;;5004486;28;20223;-72
2021/08/21 05:10:44;;;;;;;7.20;4.53;;;24.50;99.90;;;;;;5006567;28;20192;-74
2021/08/21 05:13:11;;;;;;;7.82;5.20;;;24.50;99.90;;;;;;5006324;28;20192;-73
2021/08/21 05:15:40;;;;;;;7.25;4.05;;;24.60;99.90;;;;;;4996950;28;20226;-72
2021/08/21 05:18:07;;;;;;;13.10;4.43;;;24.60;99.90;;;;;;4998812;28;20266;-75
2021/08/21 05:20:50;;;;;;;10.25;4.30;;;24.70;99.70;;;;;;5004705;28;20707;-72
2021/08/21 05:23:17;;;;;;;6.72;3.67;;;24.70;98.80;;;;;;5001648;28;20193;-71
2021/08/21 05:25:47;;;;;;;11.38;4.22;;;24.80;99.30;;;;;;5001455;28;20193;-71
2021/08/21 05:28:18;;;;;;;12.77;3.95;;;24.80;97.30;;;;;;5002931;28;20650;-73
2021/08/21 05:30:45;;;;;;;6.80;4.15;;;24.90;96.90;;;;;;5001645;28;20201;-74
2021/08/21 05:33:17;;;;;;;7.28;4.00;;;24.90;97.20;;;;;;5003531;28;20193;-73
2021/08/21 05:35:44;;;;;;;11.38;3.80;;;24.90;96.40;;;;;;4998921;28;20210;-72
2021/08/21 05:38:11;;;;;;;6.65;3.72;;;25.00;97.00;;;;;;5000858;28;20197;-71
2021/08/21 05:40:39;;;;;;;6.65;3.60;;;25.10;96.70;;;;;;5001831;28;20185;-74
2021/08/21 05:43:06;;;;;;;6.35;3.75;;;25.10;96.80;;;;;;5002562;28;20200;-74
2021/08/21 05:45:33;;;;;;;6.43;3.72;;;25.10;96.90;;;;;;4975704;28;20752;-75
2021/08/21 05:47:59;;;;;;;5.25;3.80;;;25.10;97.20;;;;;;5000682;28;20664;-71
2021/08/21 05:50:25;;;;;;;8.52;3.90;;;25.20;97.00;;;;;;5003113;28;20216;-74
2021/08/21 05:52:52;;;;;;;9.23;3.70;;;25.30;97.00;;;;;;5020319;28;20280;-74
2021/08/21 05:55:20;;;;;;;8.82;3.90;;;25.20;96.80;;;;;;5018944;28;20539;-72
2021/08/21 05:57:47;;;;;;;10.65;3.67;;;25.30;96.80;;;;;;5016784;28;20203;-71
2021/08/21 06:00:14;;;;;;;7.65;3.50;;;25.30;95.80;;;;;;5003318;28;20535;-71
2021/08/21 06:02:42;;;;;;;10.15;3.83;;;25.30;96.40;;;;;;5002943;28;20192;-72
2021/08/21 06:05:11;;;;;;;5.70;3.53;;;25.50;94.50;;;;;;5002701;28;20661;-74
2021/08/21 06:07:39;;;;;;;9.57;3.63;;;25.60;94.70;;;;;;5002054;28;20641;-71
2021/08/21 06:10:07;;;;;;;8.40;3.50;;;25.60;94.10;;;;;;5001055;28;20792;-71
2021/08/21 06:12:35;;;;;;;13.35;3.90;;;25.70;94.00;;;;;;5002209;28;20243;-71
2021/08/21 06:15:01;;;;;;;11.38;3.72;;;25.70;94.00;;;;;;5000801;28;20542;-71
2021/08/21 06:17:28;;;;;;;7.45;3.83;;;25.80;94.20;;;;;;4988164;28;20637;-69
2021/08/21 06:19:56;;;;;;;6.97;3.50;;;25.90;94.00;;;;;;5002151;28;20534;-73
2021/08/21 06:22:23;;;;;;;6.65;3.60;;;26.00;93.60;;;;;;5003356;28;20192;-70
2021/08/21 06:24:51;;;;;;;9.60;3.85;;;26.00;93.30;;;;;;5017045;28;20190;-71
2021/08/21 06:27:18;;;;;;;7.97;3.65;;;26.10;92.00;;;;;;5020666;28;20248;-73
2021/08/21 06:29:44;;;;;;;6.82;3.50;;;26.20;92.40;;;;;;5023271;28;20213;-70
2021/08/21 06:32:14;;;;;;;11.05;3.50;;;26.20;91.90;;;;;;5008796;28;20657;-71
2021/08/21 06:34:40;;;;;;;9.35;3.60;;;26.40;92.10;;;;;;5005485;28;20201;-70
2021/08/21 06:37:06;;;;;;;6.65;3.33;;;26.40;91.80;;;;;;5004828;28;20429;-71
2021/08/21 06:39:35;;;;;;;8.38;3.78;;;26.50;91.70;;;;;;4998315;28;20275;-67
2021/08/21 06:42:03;;;;;;;6.35;3.42;;;26.40;92.40;;;;;;4984438;28;20185;-70
2021/08/21 06:44:29;;;;;;;6.63;3.63;;;26.40;92.80;;;;;;5005296;28;20203;-71
2021/08/21 06:46:56;;;;;;;10.52;4.10;;;26.30;92.90;;;;;;5012391;28;20189;-74
2021/08/21 06:49:22;;;;;;;8.93;3.75;;;26.40;93.10;;;;;;4993873;28;20213;-71
2021/08/21 06:51:48;;;;;;;11.45;4.28;;;26.50;93.00;;;;;;5001931;28;20192;-71
2021/08/21 06:54:14;;;;;;;10.60;3.80;;;26.70;93.00;;;;;;5001822;28;20208;-70
2021/08/21 06:56:41;;;;;;;10.38;3.72;;;26.80;93.10;;;;;;4987734;28;20212;-71
2021/08/21 06:59:07;;;;;;;7.15;3.85;;;26.90;92.90;;;;;;5004268;28;20641;-74
2021/08/21 07:01:36;;;;;;;9.43;3.55;;;27.10;93.00;;;;;;5020845;28;20216;-71
2021/08/21 07:04:03;;;;;;;38.47;4.95;;;27.20;92.80;;;;;;4987769;28;20185;-72
2021/08/21 07:06:29;;;;;;;9.90;3.55;;;27.20;92.50;;;;;;5001906;28;20184;-70
2021/08/21 07:08:57;;;;;;;12.88;3.83;;;27.50;92.50;;;;;;5004717;28;20184;-72
2021/08/21 07:11:23;;;;;;;6.50;3.75;;;27.70;92.50;;;;;;5004369;28;20201;-71
2021/08/21 07:13:49;;;;;;;7.80;3.30;;;27.40;93.10;;;;;;4988066;28;20216;-71
2021/08/21 07:16:16;;;;;;;11.48;3.90;;;27.30;93.40;;;;;;5003500;28;20710;-71
2021/08/21 07:18:42;;;;;;;11.20;3.67;;;27.40;94.10;;;;;;4987703;28;20316;-71
2021/08/21 07:21:10;;;;;;;7.85;3.75;;;27.60;94.40;;;;;;5004028;28;20224;-71
2021/08/21 07:23:37;;;;;;;7.68;4.25;;;27.60;94.20;;;;;;5000587;28;20688;-71
2021/08/21 07:26:04;;;;;;;8.07;3.95;;;27.60;94.80;;;;;;5003580;28;20193;-72
2021/08/21 07:28:31;;;;;;;8.55;3.70;;;27.90;94.30;;;;;;5002959;28;20204;-73
2021/08/21 07:30:58;;;;;;;7.07;4.20;;;27.80;94.60;;;;;;5004098;28;20196;-73
2021/08/21 07:33:24;;;;;;;11.02;4.20;;;27.90;94.10;;;;;;5008075;28;20231;-73
2021/08/21 07:35:51;;;;;;;13.18;4.20;;;28.30;93.90;;;;;;4991558;28;20212;-73
2021/08/21 07:38:17;;;;;;;16.95;4.22;;;28.40;94.00;;;;;;5002694;28;20761;-71
2021/08/21 07:40:43;;;;;;;15.95;3.80;;;28.50;94.30;;;;;;5009535;28;20849;-70
2021/08/21 07:43:09;;;;;;;12.63;4.07;;;28.60;93.80;;;;;;4985973;28;20185;-68
2021/08/21 07:45:36;;;;;;;5.55;3.72;;;28.60;94.10;;;;;;5004675;28;20192;-69
2021/08/21 07:48:02;;;;;;;8.52;4.10;;;28.70;94.00;;;;;;4999357;28;20341;-72
2021/08/21 07:50:29;;;;;;;4.80;3.60;;;28.70;94.20;;;;;;4995926;28;20196;-70
2021/08/21 07:52:55;;;;;;;8.82;4.03;;;28.50;94.60;;;;;;5006348;28;20193;-73
2021/08/21 07:55:22;;;;;;;9.63;3.88;;;28.50;94.30;;;;;;5002525;28;20239;-72
2021/08/21 07:57:48;;;;;;;12.13;3.78;;;28.60;95.10;;;;;;5009569;28;20196;-71
2021/08/21 08:00:15;;;;;;;11.10;3.85;;;28.70;94.80;;;;;;5008764;28;20200;-73
2021/08/21 08:02:45;;;;;;;10.25;4.35;;;28.90;95.10;;;;;;5008613;28;20216;-72
2021/08/21 08:05:12;;;;;;;12.98;4.07;;;29.10;96.20;;;;;;5006641;28;20192;-71
2021/08/21 08:07:38;;;;;;;8.02;4.00;;;29.30;96.00;;;;;;4990204;28;20186;-71
2021/08/21 08:10:05;;;;;;;16.52;4.47;;;29.50;95.20;;;;;;5006390;28;20181;-72
2021/08/21 08:12:33;;;;;;;8.05;3.58;;;29.60;95.30;;;;;;5018342;28;20185;-73
2021/08/21 08:14:59;;;;;;;11.43;4.28;;;29.50;95.20;;;;;;5005047;28;20181;-72
2021/08/21 08:17:25;;;;;;;10.90;4.00;;;29.60;94.80;;;;;;5001825;28;20197;-71
2021/08/21 08:19:52;;;;;;;7.55;4.47;;;29.60;94.60;;;;;;4997706;28;20193;-71
2021/08/21 08:22:19;;;;;;;10.07;4.45;;;29.70;95.50;;;;;;5002742;28;20199;-71
2021/08/21 08:24:47;;;;;;;12.93;3.95;;;29.70;96.30;;;;;;5003722;28;20177;-70
2021/08/21 08:27:15;;;;;;;11.45;4.15;;;29.90;96.70;;;;;;5005507;28;20224;-70
2021/08/21 08:29:42;;;;;;;8.50;4.55;;;30.10;96.00;;;;;;4999960;28;20203;-72
2021/08/21 08:32:08;;;;;;;8.00;4.45;;;30.30;96.30;;;;;;5004852;28;20224;-71
2021/08/21 08:34:34;;;;;;;10.05;3.78;;;30.40;96.50;;;;;;5007310;28;20535;-72
2021/08/21 08:37:00;;;;;;;17.85;4.68;;;30.50;97.30;;;;;;5008323;28;20217;-69
2021/08/21 08:39:27;;;;;;;8.07;4.25;;;30.50;97.10;;;;;;5003594;28;20275;-69
2021/08/21 08:41:56;;;;;;;10.18;4.20;;;30.60;96.80;;;;;;4987611;28;20681;-73
2021/08/21 08:44:26;;;;;;;7.50;4.35;;;30.60;97.00;;;;;;5002174;28;20185;-74
2021/08/21 08:46:53;;;;;;;11.65;4.13;;;30.70;96.90;;;;;;4998622;28;20216;-74
2021/08/21 08:49:20;;;;;;;10.60;4.15;;;30.70;96.50;;;;;;5005962;28;20589;-71
2021/08/21 08:51:46;;;;;;;9.73;4.10;;;30.80;97.30;;;;;;4993457;28;20189;-72
2021/08/21 08:54:13;;;;;;;10.25;4.70;;;30.80;97.40;;;;;;5005125;28;20274;-71
2021/08/21 08:56:39;;;;;;;12.77;3.75;;;31.00;97.10;;;;;;5005380;28;20554;-70
2021/08/21 08:59:05;;;;;;;11.23;4.82;;;31.00;97.00;;;;;;5004336;28;20250;-70
2021/08/21 09:01:31;;;;;;;19.33;4.85;;;31.00;97.20;;;;;;5006191;28;20189;-70
2021/08/21 09:04:25;;;;;;;7.78;4.43;;;31.20;97.10;;;;;;4987974;28;20200;-71
2021/08/21 09:06:54;;;;;;;16.35;4.63;;;31.30;97.70;;;;;;5004510;28;20573;-70
2021/08/21 09:09:23;;;;;;;11.63;4.75;;;31.40;97.50;;;;;;4990093;28;20181;-70
2021/08/21 09:11:53;;;;;;;10.35;4.65;;;31.30;97.30;;;;;;5005417;28;20197;-70
2021/08/21 09:14:29;;;;;;;8.52;4.45;;;31.40;96.70;;;;;;5005285;28;20906;-69
2021/08/21 09:17:20;;;;;;;9.40;4.22;;;31.40;97.10;;;;;;5004597;28;20345;-72
2021/08/21 09:20:00;;;;;;;9.60;4.30;;;31.50;96.80;;;;;;5000439;28;20218;-70
2021/08/21 09:22:27;;;;;;;12.38;4.18;;;31.60;96.40;;;;;;4992188;28;20782;-69
2021/08/21 09:24:53;;;;;;;6.10;4.07;;;31.70;97.10;;;;;;5002292;28;20188;-71
2021/08/21 09:27:25;;;;;;;6.00;3.75;;;31.80;96.00;;;;;;5017321;28;20205;-70
2021/08/21 09:30:17;;;;;;;12.77;4.55;;;31.70;95.50;;;;;;5002538;28;20196;-70
2021/08/21 09:32:46;;;;;;;9.73;3.72;;;31.80;96.40;;;;;;5001987;28;20238;-69
2021/08/21 09:35:13;;;;;;;13.00;4.38;;;31.90;95.10;;;;;;5000089;28;20189;-73
2021/08/21 09:37:55;;;;;;;10.35;4.18;;;31.80;96.00;;;;;;5001730;28;20197;-70
2021/08/21 09:40:36;;;;;;;10.77;4.30;;;31.90;95.40;;;;;;4998706;28;20535;-69
2021/08/21 09:43:06;;;;;;;11.90;4.03;;;32.00;95.20;;;;;;5002270;28;20185;-70
2021/08/21 09:45:39;;;;;;;10.15;4.30;;;32.10;96.00;;;;;;4999465;28;20198;-73
2021/08/21 09:48:07;;;;;;;10.10;4.68;;;32.40;94.50;;;;;;5001183;28;20213;-70
2021/08/21 09:50:42;;;;;;;12.57;4.05;;;32.50;94.30;;;;;;5018562;28;20189;-70
2021/08/21 09:53:11;;;;;;;13.60;4.70;;;32.50;95.20;;;;;;4991458;28;20199;-72
2021/08/21 09:55:40;;;;;;;9.27;4.18;;;32.70;94.50;;;;;;5000952;28;20259;-74
2021/08/21 09:58:17;;;;;;;8.90;4.55;;;32.80;93.60;;;;;;5000923;28;20192;-71
2021/08/21 10:00:44;;;;;;;20.05;4.47;;;32.90;94.70;;;;;;4982260;28;20193;-71
2021/08/21 10:03:11;;;;;;;10.38;4.38;;;32.80;94.80;;;;;;5000730;28;20198;-75
2021/08/21 10:05:37;;;;;;;40.55;5.95;;;32.80;94.70;;;;;;5017086;28;20185;-75
2021/08/21 10:10:35;;;;;;;58.47;5.53;;;32.90;95.20;;;;;;5001942;28;20303;-73
2021/08/21 10:13:09;;;;;;;63.63;7.30;;;32.90;96.00;;;;;;5003122;28;20193;-73
2021/08/21 10:15:41;;;;;;;99.35;8.93;;;34.40;94.50;;;;;;5002991;28;20669;-73
2021/08/21 10:18:10;;;;;;;45.17;6.00;;;37.00;91.20;;;;;;5001945;28;20808;-74
2021/08/21 10:20:39;;;;;;;42.17;5.47;;;38.40;87.50;;;;;;4990270;28;20196;-73
2021/08/21 10:23:16;;;;;;;75.35;6.55;;;37.50;87.90;;;;;;4999018;28;20834;-73
2021/08/21 10:26:18;;;;;;;90.38;7.28;;;36.40;89.60;;;;;;4984011;28;20214;-73
2021/08/21 10:28:46;;;;;;;37.08;5.50;;;35.30;90.80;;;;;;4999673;28;20351;-73
2021/08/21 10:31:48;;;;;;;311.90;16.50;;;34.90;91.20;;;;;;5005387;28;20196;-73
2021/08/21 10:34:15;;;;;;;222.10;12.00;;;34.80;91.70;;;;;;4993087;28;20232;-73
2021/08/21 10:36:50;;;;;;;22.17;4.78;;;35.00;91.20;;;;;;5003135;28;20604;-73
2021/08/21 10:39:31;;;;;;;61.22;6.07;;;35.90;90.20;;;;;;5001870;28;20705;-74
2021/08/21 10:41:57;;;;;;;16.90;4.60;;;37.50;87.40;;;;;;5002204;28;20193;-73
2021/08/21 10:44:47;;;;;;;32.90;4.88;;;39.30;82.30;;;;;;4986949;28;20208;-74
2021/08/21 10:47:38;;;;;;;17.10;4.30;;;37.10;84.50;;;;;;5000408;28;20185;-73
2021/08/21 10:50:16;;;;;;;11.65;4.10;;;35.40;89.20;;;;;;5001348;28;20228;-73
2021/08/21 10:53:00;;;;;;;12.13;4.03;;;34.80;90.00;;;;;;5003475;28;20212;-73
2021/08/21 10:55:37;;;;;;;18.50;4.45;;;34.40;90.60;;;;;;4993024;28;20216;-73
2021/08/21 10:58:25;;;;;;;11.35;4.25;;;34.20;91.20;;;;;;4999480;28;20531;-73
2021/08/21 11:00:53;;;;;;;9.52;4.13;;;34.00;91.10;;;;;;4987089;28;20185;-73
2021/08/21 11:03:23;;;;;;;22.52;4.75;;;33.90;91.70;;;;;;5000500;28;20192;-73
2021/08/21 11:06:12;;;;;;;16.10;4.63;;;33.90;91.70;;;;;;4998925;28;20182;-73
2021/08/21 11:08:43;;;;;;;16.30;4.38;;;33.70;92.40;;;;;;5003533;28;20258;-73
2021/08/21 11:11:14;;;;;;;45.67;5.85;;;33.80;92.20;;;;;;5004745;28;20184;-73
2021/08/21 11:14:09;;;;;;;11.93;3.70;;;33.70;92.40;;;;;;4999545;28;20885;-72
2021/08/21 11:17:03;;;;;;;11.75;4.25;;;33.50;92.50;;;;;;4986552;28;20220;-73
2021/08/21 11:19:41;;;;;;;8.25;3.75;;;33.60;92.90;;;;;;5001509;28;20201;-73
2021/08/21 11:22:13;;;;;;;15.02;4.22;;;33.60;93.30;;;;;;4986286;28;20215;-73
2021/08/21 11:24:58;;;;;;;10.90;4.22;;;33.40;93.70;;;;;;4998379;28;20764;-73
2021/08/21 11:27:28;;;;;;;12.30;4.38;;;33.40;94.10;;;;;;5004175;28;20187;-73
2021/08/21 11:30:10;;;;;;;10.10;4.05;;;33.20;94.60;;;;;;4986269;28;20255;-73
2021/08/21 11:32:50;;;;;;;8.50;4.07;;;33.20;95.70;;;;;;5006672;28;20192;-73
2021/08/21 11:35:27;;;;;;;9.88;4.07;;;33.10;96.10;;;;;;5006856;28;20189;-73
2021/08/21 11:38:09;;;;;;;8.45;3.88;;;33.20;96.20;;;;;;5004212;28;20678;-72
2021/08/21 11:40:50;;;;;;;7.70;3.75;;;33.10;95.80;;;;;;4999932;28;20594;-73
2021/08/21 11:43:25;;;;;;;8.35;4.22;;;33.20;96.80;;;;;;4996155;28;20188;-73
2021/08/21 11:45:55;;;;;;;10.30;4.18;;;33.20;96.90;;;;;;4997994;28;20218;-73
2021/08/21 11:48:36;;;;;;;12.40;4.10;;;33.10;97.50;;;;;;5005531;28;20212;-73
2021/08/21 11:51:04;;;;;;;6.85;4.28;;;33.20;97.20;;;;;;4987123;28;20284;-73
2021/08/21 11:53:40;;;;;;;9.10;4.10;;;33.00;97.50;;;;;;5019837;28;20202;-73
2021/08/21 11:56:07;;;;;;;13.40;4.32;;;32.90;97.50;;;;;;4998659;28;20307;-73
2021/08/21 11:58:46;;;;;;;7.53;4.30;;;33.10;97.50;;;;;;4999464;28;20194;-73
2021/08/21 12:01:14;;;;;;;16.23;4.57;;;33.00;97.10;;;;;;5000721;28;20213;-72
2021/08/21 12:06:40;;;;;;;12.88;4.45;;;33.10;96.80;;;;;;5004333;28;20243;-72
2021/08/21 12:09:14;;;;;;;8.73;4.45;;;33.10;98.40;;;;;;5009881;28;20702;-76
2021/08/21 12:11:44;;;;;;;9.63;4.45;;;33.30;98.50;;;;;;4999746;28;20185;-72
2021/08/21 12:14:12;;;;;;;15.57;4.38;;;33.10;98.10;;;;;;5002036;28;20636;-72
2021/08/21 12:16:40;;;;;;;7.85;4.25;;;33.30;99.30;;;;;;5006415;28;20243;-72
2021/08/21 12:19:08;;;;;;;4.97;3.83;;;33.40;99.80;;;;;;5018139;28;20211;-72
2021/08/21 12:21:37;;;;;;;15.68;3.90;;;33.40;99.80;;;;;;4995163;28;20785;-72
2021/08/21 12:24:11;;;;;;;11.40;4.13;;;33.60;99.50;;;;;;5003745;28;20178;-73
2021/08/21 12:26:47;;;;;;;7.00;4.55;;;33.50;99.90;;;;;;5006597;28;20244;-73
2021/08/21 12:29:40;;;;;;;8.88;4.55;;;33.50;99.00;;;;;;5001438;28;20208;-73
2021/08/21 12:32:24;;;;;;;8.98;4.63;;;33.40;99.90;;;;;;5002772;28;20204;-72
2021/08/21 12:35:17;;;;;;;11.60;4.70;;;33.50;99.90;;;;;;5006657;28;20192;-74
2021/08/21 12:38:06;;;;;;;11.93;4.20;;;33.30;99.80;;;;;;5003099;28;20236;-75
2021/08/21 12:40:33;;;;;;;7.10;4.10;;;33.50;99.90;;;;;;5003901;28;20197;-74
2021/08/21 12:43:08;;;;;;;10.40;4.10;;;33.40;99.90;;;;;;4990166;28;20289;-72
2021/08/21 12:45:45;;;;;;;6.25;3.83;;;33.40;99.90;;;;;;5005646;28;20199;-72
2021/08/21 12:48:13;;;;;;;7.63;4.35;;;33.60;99.90;;;;;;5006659;28;20208;-72
2021/08/21 12:50:41;;;;;;;14.02;4.28;;;33.60;99.80;;;;;;5005158;28;20239;-73
2021/08/21 12:53:09;;;;;;;11.15;3.80;;;33.60;99.90;;;;;;5011937;28;20671;-72
2021/08/21 12:55:36;;;;;;;6.68;4.18;;;33.60;98.70;;;;;;5003285;28;20226;-72
2021/08/21 12:58:09;;;;;;;10.63;4.43;;;33.40;98.30;;;;;;5016855;28;20189;-72
2021/08/21 13:00:41;;;;;;;5.47;3.97;;;33.50;99.90;;;;;;5001184;28;20212;-72